createdAt,value
2023-04-30T00:04:22.409Z,5.77
2023-04-30T00:09:25.566Z,4.67
2023-04-30T00:14:30.051Z,4.77
2023-04-30T00:19:33.208Z,4.77
2023-04-30T00:24:36.294Z,4.33
2023-04-30T00:29:41.217Z,5.30
2023-04-30T00:34:44.460Z,3.80
2023-04-30T00:39:47.528Z,4.07
2023-04-30T00:44:52.123Z,3.63
2023-04-30T00:49:55.642Z,4.17
2023-04-30T00:54:59.166Z,4.10
2023-04-30T01:00:03.955Z,4.60
2023-04-30T01:05:08.262Z,3.63
2023-04-30T01:10:12.160Z,3.70
2023-04-30T01:15:28.696Z,4.10
2023-04-30T01:20:33.311Z,3.97
2023-04-30T01:26:08.971Z,4.20
2023-04-30T01:31:19.959Z,4.10
2023-04-30T01:36:34.739Z,3.80
2023-04-30T01:41:42.524Z,3.50
2023-04-30T01:46:56.203Z,4.40
2023-04-30T01:52:08.484Z,4.30
2023-04-30T01:57:17.743Z,4.83
2023-04-30T02:02:22.245Z,4.20
2023-04-30T02:07:38.031Z,4.60
2023-04-30T02:12:41.559Z,5.10
2023-04-30T02:17:46.076Z,4.87
2023-04-30T02:22:49.178Z,5.30
2023-04-30T02:27:52.383Z,5.30
2023-04-30T02:32:57.147Z,5.53
2023-04-30T02:38:00.322Z,5.13
2023-04-30T02:43:03.386Z,5.50
2023-04-30T02:48:08.012Z,4.70
2023-04-30T02:53:11.338Z,5.30
2023-04-30T02:58:14.767Z,5.43
2023-04-30T03:03:19.318Z,5.53
2023-04-30T03:08:22.497Z,5.63
2023-04-30T03:13:26.763Z,5.50
2023-04-30T03:18:31.478Z,5.37
2023-04-30T03:23:34.551Z,5.27
2023-04-30T03:28:37.620Z,5.17
2023-04-30T03:33:42.109Z,5.40
2023-04-30T03:38:45.228Z,5.83
2023-04-30T03:43:48.347Z,5.07
2023-04-30T03:48:52.798Z,5.40
2023-04-30T03:53:55.919Z,5.77
2023-04-30T03:58:59.218Z,5.53
2023-04-30T04:04:03.958Z,5.50
2023-04-30T04:09:07.098Z,5.80
2023-04-30T04:14:10.164Z,5.83
2023-04-30T04:19:14.608Z,6.20
2023-04-30T04:24:17.691Z,5.83
2023-04-30T04:29:20.909Z,5.70
2023-04-30T04:34:25.499Z,5.90
2023-04-30T04:39:28.620Z,6.00
2023-04-30T04:44:32.398Z,6.30
2023-04-30T04:49:36.866Z,5.73
2023-04-30T04:54:40.018Z,6.07
2023-04-30T04:59:43.150Z,6.10
2023-04-30T05:04:50.455Z,6.60
2023-04-30T05:09:53.907Z,5.47
2023-04-30T05:14:57.109Z,5.50
2023-04-30T05:20:01.737Z,5.90
2023-04-30T05:25:05.173Z,6.27
2023-04-30T05:30:09.511Z,6.20
2023-04-30T05:35:13.944Z,5.40
2023-04-30T05:40:17.286Z,6.80
2023-04-30T05:45:20.441Z,7.07
2023-04-30T05:50:24.893Z,6.83
2023-04-30T05:55:27.956Z,6.67
2023-04-30T06:00:31.256Z,7.00
2023-04-30T06:05:35.711Z,7.87
2023-04-30T06:10:39.278Z,7.47
2023-04-30T06:15:42.764Z,7.40
2023-04-30T06:20:47.228Z,7.80
2023-04-30T06:25:50.401Z,7.17
2023-04-30T06:30:54.352Z,6.83
2023-04-30T06:35:58.817Z,7.60
2023-04-30T06:41:01.969Z,6.27
2023-04-30T06:46:05.262Z,6.53
2023-04-30T06:51:11.080Z,6.10
2023-04-30T06:56:14.310Z,7.37
2023-04-30T07:01:17.524Z,7.03
2023-04-30T07:06:22.308Z,7.10
2023-04-30T07:11:25.463Z,6.70
2023-04-30T07:16:28.965Z,6.40
2023-04-30T07:21:33.600Z,7.03
2023-04-30T07:26:36.668Z,5.60
2023-04-30T07:31:39.895Z,6.60
2023-04-30T07:36:44.430Z,6.87
2023-04-30T07:41:47.529Z,7.00
2023-04-30T07:46:50.898Z,5.90
2023-04-30T07:51:55.401Z,5.93
2023-04-30T07:56:58.545Z,6.60
2023-04-30T08:02:02.173Z,6.60
2023-04-30T08:07:07.597Z,6.83
2023-04-30T08:12:10.885Z,6.50
2023-04-30T08:17:13.985Z,5.13
2023-04-30T08:22:18.450Z,5.10
2023-04-30T08:27:21.574Z,4.60
2023-04-30T08:32:24.879Z,4.90
2023-04-30T08:37:29.489Z,4.23
2023-04-30T08:42:36.924Z,4.30
2023-04-30T08:47:40.642Z,4.37
2023-04-30T08:52:45.470Z,3.53
2023-04-30T08:57:48.656Z,3.37
2023-04-30T09:02:51.976Z,3.20
2023-04-30T09:13:05.893Z,3.40
2023-04-30T09:18:11.720Z,3.50
2023-04-30T09:23:16.256Z,3.47
2023-04-30T09:28:23.725Z,3.17
2023-04-30T09:33:26.991Z,2.90
2023-04-30T09:38:32.825Z,3.40
2023-04-30T09:43:45.675Z,3.10
2023-04-30T09:48:49.708Z,3.13
2023-04-30T09:53:54.948Z,3.23
2023-04-30T09:58:58.577Z,3.60
2023-04-30T10:04:02.722Z,3.97
2023-04-30T10:09:08.507Z,3.17
2023-04-30T10:14:14.064Z,3.33
2023-04-30T10:19:21.530Z,3.33
2023-04-30T10:24:26.201Z,3.10
2023-04-30T10:29:29.290Z,3.33
2023-04-30T10:34:43.166Z,3.23
2023-04-30T10:39:48.210Z,3.27
2023-04-30T10:44:51.342Z,3.37
2023-04-30T10:49:54.564Z,2.90
2023-04-30T10:54:59.183Z,3.00
2023-04-30T11:00:21.916Z,2.90
2023-04-30T11:05:35.969Z,3.27
2023-04-30T11:10:58.714Z,3.30
2023-04-30T11:16:05.522Z,3.10
2023-04-30T11:21:10.258Z,2.57
2023-04-30T11:26:14.910Z,3.00
2023-04-30T11:31:19.355Z,2.90
2023-04-30T11:36:24.926Z,2.97
2023-04-30T11:41:29.857Z,3.00
2023-04-30T11:46:33.118Z,3.20
2023-04-30T11:51:38.701Z,2.90
2023-04-30T11:56:48.814Z,2.77
2023-04-30T12:01:52.031Z,2.60
2023-04-30T12:06:56.695Z,3.23
2023-04-30T12:12:02.610Z,3.33
2023-04-30T12:17:05.904Z,2.53
2023-04-30T12:22:09.178Z,2.50
2023-04-30T12:27:13.854Z,2.23
2023-04-30T12:32:19.364Z,2.80
2023-04-30T12:37:22.747Z,2.93
2023-04-30T12:42:33.206Z,2.30
2023-04-30T12:47:41.787Z,2.60
2023-04-30T12:52:46.432Z,2.57
2023-04-30T12:58:08.766Z,2.37
2023-04-30T13:03:12.329Z,2.20
2023-04-30T13:08:16.000Z,1.87
2023-04-30T13:13:21.365Z,1.87
2023-04-30T13:18:24.587Z,1.90
2023-04-30T13:23:28.456Z,2.10
2023-04-30T13:28:33.987Z,2.27
2023-04-30T13:33:37.577Z,2.00
2023-04-30T13:38:41.740Z,2.10
2023-04-30T13:43:47.740Z,2.30
2023-04-30T13:48:53.220Z,2.40
2023-04-30T13:53:56.778Z,2.40
2023-04-30T13:59:01.530Z,2.13
2023-04-30T14:04:04.967Z,3.97
2023-04-30T14:09:08.308Z,2.00
2023-04-30T14:14:12.988Z,1.93
2023-04-30T14:19:19.419Z,1.90
2023-04-30T14:24:22.527Z,1.90
2023-04-30T14:29:27.132Z,2.07
2023-04-30T14:34:30.291Z,1.90
2023-04-30T14:39:33.370Z,2.00
2023-04-30T14:44:38.601Z,2.27
2023-04-30T14:49:41.808Z,2.40
2023-04-30T14:54:47.974Z,2.50
2023-04-30T14:59:55.195Z,2.40
2023-04-30T15:04:58.683Z,2.17
2023-04-30T15:10:01.949Z,2.47
2023-04-30T15:15:07.966Z,2.13
2023-04-30T15:20:11.873Z,2.47
2023-04-30T15:25:15.100Z,2.10
2023-04-30T15:30:21.550Z,2.67
2023-04-30T15:35:24.713Z,2.50
2023-04-30T15:40:27.857Z,2.33
2023-04-30T15:45:33.705Z,2.10
2023-04-30T15:50:37.858Z,2.30
2023-04-30T15:55:41.114Z,2.43
2023-04-30T16:00:45.931Z,2.33
2023-04-30T16:05:49.061Z,2.37
2023-04-30T16:10:52.154Z,1.80
2023-04-30T16:15:57.078Z,2.20
2023-04-30T16:21:00.408Z,2.40
2023-04-30T16:26:03.498Z,2.03
2023-04-30T16:31:08.071Z,2.60
2023-04-30T16:36:11.218Z,2.60
2023-04-30T16:41:16.619Z,2.20
2023-04-30T16:46:21.246Z,2.00
2023-04-30T16:51:24.416Z,2.17
2023-04-30T16:56:27.974Z,2.53
2023-04-30T17:01:32.502Z,2.40
2023-04-30T17:06:36.760Z,2.40
2023-04-30T17:11:39.980Z,2.50
2023-04-30T17:16:45.024Z,2.63
2023-04-30T17:21:48.122Z,2.70
2023-04-30T17:26:51.550Z,2.50
2023-04-30T17:31:56.158Z,2.30
2023-04-30T17:36:59.450Z,2.53
2023-04-30T17:42:03.366Z,2.70
2023-04-30T17:47:07.986Z,3.07
2023-04-30T17:52:11.188Z,2.73
2023-04-30T17:57:14.266Z,3.40
2023-04-30T18:02:19.024Z,3.00
2023-04-30T18:07:22.185Z,5.90
2023-04-30T18:12:25.672Z,5.97
2023-04-30T18:17:30.131Z,3.97
2023-04-30T18:22:33.263Z,3.33
2023-04-30T18:27:36.433Z,4.10
2023-04-30T18:32:41.912Z,2.90
2023-04-30T18:37:45.164Z,2.60
2023-04-30T18:42:48.329Z,2.80
2023-04-30T18:47:52.931Z,2.43
2023-04-30T18:52:56.148Z,3.10
2023-04-30T18:58:00.016Z,2.73
2023-04-30T19:03:04.710Z,3.00
2023-04-30T19:08:08.671Z,3.00
2023-04-30T19:13:12.000Z,3.10
2023-04-30T19:18:17.774Z,2.90
2023-04-30T19:23:21.033Z,2.73
2023-04-30T19:28:24.456Z,3.07
2023-04-30T19:33:29.957Z,2.67
2023-04-30T19:38:33.056Z,2.80
2023-04-30T19:43:36.402Z,2.80
2023-04-30T19:48:40.879Z,2.77
2023-04-30T19:53:44.151Z,2.97
2023-04-30T19:58:47.524Z,2.70
2023-04-30T20:03:52.261Z,2.90
2023-04-30T20:08:55.530Z,2.97
2023-04-30T20:13:58.716Z,2.73
2023-04-30T20:19:03.329Z,2.10
2023-04-30T20:24:07.182Z,2.37
2023-04-30T20:29:10.838Z,2.57
2023-04-30T20:34:15.400Z,2.23
2023-04-30T20:39:18.633Z,4.13
2023-04-30T20:44:21.770Z,2.53
2023-04-30T20:49:27.065Z,2.87
2023-04-30T20:54:30.274Z,2.73
2023-04-30T20:59:35.397Z,2.60
2023-04-30T21:04:39.907Z,2.57
2023-04-30T21:09:43.806Z,2.63
2023-04-30T21:14:47.012Z,2.27
2023-04-30T21:19:51.711Z,2.53
2023-04-30T21:24:55.172Z,3.57
2023-04-30T21:29:58.550Z,3.10
2023-04-30T21:35:03.229Z,3.07
2023-04-30T21:40:07.636Z,2.43
2023-04-30T21:45:11.594Z,2.50
2023-04-30T21:50:16.434Z,2.53
2023-04-30T21:55:19.564Z,2.80
2023-04-30T22:00:22.883Z,3.07
2023-04-30T22:05:27.441Z,2.93
2023-04-30T22:10:31.412Z,3.10
2023-04-30T22:15:47.144Z,3.23
2023-04-30T22:20:53.302Z,3.07
2023-04-30T22:25:56.516Z,3.23
2023-04-30T22:31:00.244Z,4.07
2023-04-30T22:36:05.515Z,3.50
2023-04-30T22:41:08.836Z,3.00
2023-04-30T22:46:11.979Z,3.37
2023-04-30T22:51:17.390Z,3.63
2023-04-30T22:56:20.915Z,3.40
2023-04-30T23:01:24.089Z,3.70
2023-04-30T23:06:30.042Z,3.23
2023-04-30T23:11:33.561Z,3.80
2023-04-30T23:16:40.070Z,3.83
2023-04-30T23:21:44.732Z,4.10
2023-04-30T23:26:48.299Z,4.20
2023-04-30T23:31:53.936Z,4.83
2023-04-30T23:36:58.498Z,5.30
2023-04-30T23:42:02.546Z,5.27
2023-04-30T23:47:05.679Z,5.60
2023-04-30T23:52:10.203Z,4.87
2023-04-30T23:57:13.341Z,4.80
